sensor_id;sensor_type;location;lat;lon;timestamp;P1;durP1;ratioP1;P2;durP2;ratioP2
29246;SDS011;16272;48.188;9.964;2023-02-18T00:01:45;5.57;;;1.50;;
29246;SDS011;16272;48.188;9.964;2023-02-18T00:04:10;5.30;;;1.50;;
29246;SDS011;16272;48.188;9.964;2023-02-18T00:06:36;5.85;;;1.60;;
29246;SDS011;16272;48.188;9.964;2023-02-18T00:09:03;6.00;;;2.10;;
29246;SDS011;16272;48.188;9.964;2023-02-18T00:11:31;6.35;;;1.58;;
29246;SDS011;16272;48.188;9.964;2023-02-18T00:13:59;5.72;;;1.52;;
29246;SDS011;16272;48.188;9.964;2023-02-18T00:16:25;5.43;;;1.40;;
29246;SDS011;16272;48.188;9.964;2023-02-18T00:18:56;5.30;;;1.73;;
29246;SDS011;16272;48.188;9.964;2023-02-18T00:21:24;4.67;;;1.30;;
29246;SDS011;16272;48.188;9.964;2023-02-18T00:23:49;5.60;;;1.60;;
29246;SDS011;16272;48.188;9.964;2023-02-18T00:26:16;6.45;;;1.48;;
29246;SDS011;16272;48.188;9.964;2023-02-18T00:28:42;4.90;;;1.40;;
29246;SDS011;16272;48.188;9.964;2023-02-18T00:31:12;5.47;;;1.70;;
29246;SDS011;16272;48.188;9.964;2023-02-18T00:33:39;6.40;;;1.40;;
29246;SDS011;16272;48.188;9.964;2023-02-18T00:36:06;5.30;;;1.40;;
29246;SDS011;16272;48.188;9.964;2023-02-18T00:38:35;4.93;;;1.60;;
29246;SDS011;16272;48.188;9.964;2023-02-18T00:41:00;5.70;;;1.75;;
29246;SDS011;16272;48.188;9.964;2023-02-18T00:43:27;5.53;;;1.67;;
29246;SDS011;16272;48.188;9.964;2023-02-18T00:45:53;5.70;;;1.70;;
29246;SDS011;16272;48.188;9.964;2023-02-18T00:48:19;7.00;;;1.63;;
29246;SDS011;16272;48.188;9.964;2023-02-18T00:50:44;5.40;;;1.83;;
29246;SDS011;16272;48.188;9.964;2023-02-18T00:53:11;6.85;;;1.60;;
29246;SDS011;16272;48.188;9.964;2023-02-18T00:55:38;7.70;;;1.67;;
29246;SDS011;16272;48.188;9.964;2023-02-18T00:58:04;6.45;;;1.50;;
29246;SDS011;16272;48.188;9.964;2023-02-18T01:00:30;5.87;;;1.67;;
29246;SDS011;16272;48.188;9.964;2023-02-18T01:02:56;6.03;;;1.73;;
29246;SDS011;16272;48.188;9.964;2023-02-18T01:05:21;6.67;;;2.20;;
29246;SDS011;16272;48.188;9.964;2023-02-18T01:07:46;8.00;;;2.20;;
29246;SDS011;16272;48.188;9.964;2023-02-18T01:10:12;7.43;;;2.20;;
29246;SDS011;16272;48.188;9.964;2023-02-18T01:12:38;6.43;;;1.90;;
29246;SDS011;16272;48.188;9.964;2023-02-18T01:15:04;7.57;;;2.40;;
29246;SDS011;16272;48.188;9.964;2023-02-18T01:17:30;6.57;;;2.25;;
29246;SDS011;16272;48.188;9.964;2023-02-18T01:19:57;8.82;;;2.85;;
29246;SDS011;16272;48.188;9.964;2023-02-18T01:22:23;9.47;;;2.77;;
29246;SDS011;16272;48.188;9.964;2023-02-18T01:24:49;7.75;;;2.40;;
29246;SDS011;16272;48.188;9.964;2023-02-18T01:27:14;7.87;;;2.67;;
29246;SDS011;16272;48.188;9.964;2023-02-18T01:29:39;7.20;;;2.60;;
29246;SDS011;16272;48.188;9.964;2023-02-18T01:32:05;7.90;;;2.53;;
29246;SDS011;16272;48.188;9.964;2023-02-18T01:34:30;7.57;;;2.57;;
29246;SDS011;16272;48.188;9.964;2023-02-18T01:36:56;8.00;;;2.70;;
29246;SDS011;16272;48.188;9.964;2023-02-18T01:39:22;8.30;;;2.75;;
29246;SDS011;16272;48.188;9.964;2023-02-18T01:41:47;7.93;;;3.03;;
29246;SDS011;16272;48.188;9.964;2023-02-18T01:44:21;8.13;;;2.70;;
29246;SDS011;16272;48.188;9.964;2023-02-18T01:46:48;6.90;;;2.58;;
29246;SDS011;16272;48.188;9.964;2023-02-18T01:49:22;8.25;;;3.00;;
29246;SDS011;16272;48.188;9.964;2023-02-18T01:51:52;8.35;;;2.60;;
29246;SDS011;16272;48.188;9.964;2023-02-18T01:54:21;7.17;;;2.77;;
29246;SDS011;16272;48.188;9.964;2023-02-18T01:57:35;8.25;;;2.72;;
29246;SDS011;16272;48.188;9.964;2023-02-18T01:59:45;7.78;;;3.10;;
29246;SDS011;16272;48.188;9.964;2023-02-18T02:02:13;7.55;;;2.70;;
29246;SDS011;16272;48.188;9.964;2023-02-18T02:04:42;7.53;;;2.70;;
29246;SDS011;16272;48.188;9.964;2023-02-18T02:07:07;7.47;;;2.70;;
29246;SDS011;16272;48.188;9.964;2023-02-18T02:09:33;8.13;;;2.70;;
29246;SDS011;16272;48.188;9.964;2023-02-18T02:43:05;7.65;;;2.97;;
29246;SDS011;16272;48.188;9.964;2023-02-18T02:45:51;8.10;;;3.20;;
29246;SDS011;16272;48.188;9.964;2023-02-18T02:49:07;7.93;;;2.70;;
29246;SDS011;16272;48.188;9.964;2023-02-18T02:54:36;7.25;;;2.97;;
29246;SDS011;16272;48.188;9.964;2023-02-18T02:59:43;7.40;;;2.77;;
29246;SDS011;16272;48.188;9.964;2023-02-18T03:04:59;6.85;;;2.78;;
29246;SDS011;16272;48.188;9.964;2023-02-18T03:07:42;6.95;;;2.67;;
29246;SDS011;16272;48.188;9.964;2023-02-18T03:13:03;6.97;;;2.43;;
29246;SDS011;16272;48.188;9.964;2023-02-18T03:15:40;7.40;;;2.55;;
29246;SDS011;16272;48.188;9.964;2023-02-18T03:18:14;6.90;;;2.30;;
29246;SDS011;16272;48.188;9.964;2023-02-18T03:20:52;7.05;;;2.35;;
29246;SDS011;16272;48.188;9.964;2023-02-18T03:23:22;7.18;;;2.60;;
29246;SDS011;16272;48.188;9.964;2023-02-18T03:25:55;5.97;;;1.90;;
29246;SDS011;16272;48.188;9.964;2023-02-18T03:28:23;6.72;;;2.67;;
29246;SDS011;16272;48.188;9.964;2023-02-18T03:30:54;6.45;;;2.30;;
29246;SDS011;16272;48.188;9.964;2023-02-18T03:33:25;6.57;;;2.15;;
29246;SDS011;16272;48.188;9.964;2023-02-18T03:35:55;7.13;;;2.17;;
29246;SDS011;16272;48.188;9.964;2023-02-18T03:41:02;6.65;;;1.80;;
29246;SDS011;16272;48.188;9.964;2023-02-18T03:43:29;6.75;;;2.25;;
29246;SDS011;16272;48.188;9.964;2023-02-18T03:45:55;8.20;;;2.50;;
29246;SDS011;16272;48.188;9.964;2023-02-18T03:48:20;6.80;;;2.00;;
29246;SDS011;16272;48.188;9.964;2023-02-18T03:50:46;7.03;;;2.40;;
29246;SDS011;16272;48.188;9.964;2023-02-18T03:53:11;6.30;;;2.10;;
29246;SDS011;16272;48.188;9.964;2023-02-18T03:55:36;6.30;;;2.10;;
29246;SDS011;16272;48.188;9.964;2023-02-18T03:58:02;6.57;;;2.00;;
29246;SDS011;16272;48.188;9.964;2023-02-18T04:00:29;6.10;;;2.03;;
29246;SDS011;16272;48.188;9.964;2023-02-18T04:02:55;6.18;;;1.95;;
29246;SDS011;16272;48.188;9.964;2023-02-18T04:05:20;6.33;;;2.00;;
29246;SDS011;16272;48.188;9.964;2023-02-18T04:07:45;5.80;;;1.97;;
29246;SDS011;16272;48.188;9.964;2023-02-18T04:10:11;6.17;;;2.20;;
29246;SDS011;16272;48.188;9.964;2023-02-18T04:12:36;5.25;;;1.65;;
29246;SDS011;16272;48.188;9.964;2023-02-18T04:15:02;5.57;;;1.70;;
29246;SDS011;16272;48.188;9.964;2023-02-18T04:17:28;6.22;;;2.03;;
29246;SDS011;16272;48.188;9.964;2023-02-18T04:19:54;5.80;;;2.00;;
29246;SDS011;16272;48.188;9.964;2023-02-18T04:22:19;5.77;;;2.00;;
29246;SDS011;16272;48.188;9.964;2023-02-18T04:24:44;6.73;;;2.07;;
29246;SDS011;16272;48.188;9.964;2023-02-18T04:27:10;5.77;;;1.80;;
29246;SDS011;16272;48.188;9.964;2023-02-18T04:29:35;6.07;;;1.80;;
29246;SDS011;16272;48.188;9.964;2023-02-18T04:32:01;6.03;;;1.95;;
29246;SDS011;16272;48.188;9.964;2023-02-18T04:34:27;5.80;;;1.80;;
29246;SDS011;16272;48.188;9.964;2023-02-18T04:36:52;5.97;;;1.80;;
29246;SDS011;16272;48.188;9.964;2023-02-18T04:39:17;4.97;;;1.37;;
29246;SDS011;16272;48.188;9.964;2023-02-18T04:41:43;6.60;;;1.70;;
29246;SDS011;16272;48.188;9.964;2023-02-18T04:44:08;5.60;;;1.67;;
29246;SDS011;16272;48.188;9.964;2023-02-18T04:46:33;7.10;;;2.00;;
29246;SDS011;16272;48.188;9.964;2023-02-18T04:48:59;5.70;;;1.70;;
29246;SDS011;16272;48.188;9.964;2023-02-18T04:51:25;5.43;;;1.87;;
29246;SDS011;16272;48.188;9.964;2023-02-18T04:53:50;5.50;;;1.60;;
29246;SDS011;16272;48.188;9.964;2023-02-18T04:56:17;6.20;;;1.90;;
29246;SDS011;16272;48.188;9.964;2023-02-18T04:58:42;5.80;;;1.80;;
29246;SDS011;16272;48.188;9.964;2023-02-18T05:01:07;6.40;;;1.80;;
29246;SDS011;16272;48.188;9.964;2023-02-18T05:03:33;5.90;;;1.77;;
29246;SDS011;16272;48.188;9.964;2023-02-18T05:05:58;5.87;;;1.53;;
29246;SDS011;16272;48.188;9.964;2023-02-18T05:08:23;5.10;;;1.42;;
29246;SDS011;16272;48.188;9.964;2023-02-18T05:10:49;5.43;;;1.43;;
29246;SDS011;16272;48.188;9.964;2023-02-18T05:13:14;6.20;;;1.77;;
29246;SDS011;16272;48.188;9.964;2023-02-18T05:15:40;4.70;;;1.40;;
29246;SDS011;16272;48.188;9.964;2023-02-18T05:18:06;4.90;;;1.43;;
29246;SDS011;16272;48.188;9.964;2023-02-18T05:20:31;5.70;;;1.60;;
29246;SDS011;16272;48.188;9.964;2023-02-18T05:22:58;5.43;;;1.80;;
29246;SDS011;16272;48.188;9.964;2023-02-18T05:25:23;5.70;;;1.33;;
29246;SDS011;16272;48.188;9.964;2023-02-18T05:27:49;6.20;;;1.50;;
29246;SDS011;16272;48.188;9.964;2023-02-18T05:30:14;5.43;;;1.13;;
29246;SDS011;16272;48.188;9.964;2023-02-18T05:32:40;5.77;;;1.60;;
29246;SDS011;16272;48.188;9.964;2023-02-18T05:35:05;5.23;;;1.50;;
29246;SDS011;16272;48.188;9.964;2023-02-18T05:37:32;5.05;;;1.10;;
29246;SDS011;16272;48.188;9.964;2023-02-18T05:39:58;4.75;;;1.35;;
29246;SDS011;16272;48.188;9.964;2023-02-18T05:42:23;5.00;;;1.47;;
29246;SDS011;16272;48.188;9.964;2023-02-18T05:44:48;5.00;;;1.10;;
29246;SDS011;16272;48.188;9.964;2023-02-18T05:47:14;5.07;;;1.37;;
29246;SDS011;16272;48.188;9.964;2023-02-18T05:49:41;5.05;;;1.25;;
29246;SDS011;16272;48.188;9.964;2023-02-18T05:52:07;4.43;;;1.20;;
29246;SDS011;16272;48.188;9.964;2023-02-18T05:54:34;5.30;;;1.40;;
29246;SDS011;16272;48.188;9.964;2023-02-18T05:57:01;5.35;;;1.30;;
29246;SDS011;16272;48.188;9.964;2023-02-18T05:59:26;5.45;;;1.33;;
29246;SDS011;16272;48.188;9.964;2023-02-18T06:01:52;6.03;;;1.20;;
29246;SDS011;16272;48.188;9.964;2023-02-18T06:04:20;4.57;;;1.08;;
29246;SDS011;16272;48.188;9.964;2023-02-18T06:06:45;5.53;;;1.20;;
29246;SDS011;16272;48.188;9.964;2023-02-18T06:09:11;4.50;;;1.17;;
29246;SDS011;16272;48.188;9.964;2023-02-18T06:11:38;5.88;;;1.48;;
29246;SDS011;16272;48.188;9.964;2023-02-18T06:14:04;4.80;;;1.40;;
29246;SDS011;16272;48.188;9.964;2023-02-18T06:16:30;4.40;;;1.13;;
29246;SDS011;16272;48.188;9.964;2023-02-18T06:18:58;4.75;;;1.20;;
29246;SDS011;16272;48.188;9.964;2023-02-18T06:21:23;4.68;;;1.42;;
29246;SDS011;16272;48.188;9.964;2023-02-18T06:23:49;4.50;;;1.10;;
29246;SDS011;16272;48.188;9.964;2023-02-18T06:26:14;4.50;;;1.17;;
29246;SDS011;16272;48.188;9.964;2023-02-18T06:28:40;5.53;;;1.40;;
29246;SDS011;16272;48.188;9.964;2023-02-18T06:31:06;4.97;;;1.30;;
29246;SDS011;16272;48.188;9.964;2023-02-18T06:33:31;4.45;;;1.00;;
29246;SDS011;16272;48.188;9.964;2023-02-18T06:36:04;4.53;;;1.20;;
29246;SDS011;16272;48.188;9.964;2023-02-18T06:38:32;4.20;;;1.07;;
29246;SDS011;16272;48.188;9.964;2023-02-18T06:40:58;5.28;;;1.50;;
29246;SDS011;16272;48.188;9.964;2023-02-18T06:43:24;4.28;;;0.90;;
29246;SDS011;16272;48.188;9.964;2023-02-18T06:45:49;4.50;;;1.10;;
29246;SDS011;16272;48.188;9.964;2023-02-18T06:48:15;4.90;;;1.47;;
29246;SDS011;16272;48.188;9.964;2023-02-18T06:50:41;4.43;;;1.30;;
29246;SDS011;16272;48.188;9.964;2023-02-18T06:53:07;4.83;;;1.17;;
29246;SDS011;16272;48.188;9.964;2023-02-18T06:55:35;5.63;;;1.38;;
29246;SDS011;16272;48.188;9.964;2023-02-18T06:58:01;5.75;;;1.60;;
29246;SDS011;16272;48.188;9.964;2023-02-18T07:00:28;4.72;;;1.30;;
29246;SDS011;16272;48.188;9.964;2023-02-18T07:02:53;4.47;;;1.20;;
29246;SDS011;16272;48.188;9.964;2023-02-18T07:05:18;4.50;;;1.20;;
29246;SDS011;16272;48.188;9.964;2023-02-18T07:07:45;4.50;;;1.20;;
29246;SDS011;16272;48.188;9.964;2023-02-18T07:10:11;5.05;;;1.35;;
29246;SDS011;16272;48.188;9.964;2023-02-18T07:12:38;4.73;;;1.20;;
29246;SDS011;16272;48.188;9.964;2023-02-18T07:15:03;4.15;;;1.08;;
29246;SDS011;16272;48.188;9.964;2023-02-18T07:17:29;5.72;;;1.20;;
29246;SDS011;16272;48.188;9.964;2023-02-18T07:19:54;5.00;;;1.30;;
29246;SDS011;16272;48.188;9.964;2023-02-18T07:22:20;5.17;;;1.40;;
29246;SDS011;16272;48.188;9.964;2023-02-18T07:24:51;4.10;;;1.10;;
29246;SDS011;16272;48.188;9.964;2023-02-18T07:27:17;3.80;;;1.10;;
29246;SDS011;16272;48.188;9.964;2023-02-18T07:29:42;4.60;;;1.10;;
29246;SDS011;16272;48.188;9.964;2023-02-18T07:32:10;4.17;;;1.23;;
29246;SDS011;16272;48.188;9.964;2023-02-18T07:34:36;5.10;;;1.15;;
29246;SDS011;16272;48.188;9.964;2023-02-18T07:37:01;4.20;;;1.20;;
29246;SDS011;16272;48.188;9.964;2023-02-18T07:39:33;5.18;;;1.10;;
29246;SDS011;16272;48.188;9.964;2023-02-18T07:41:58;4.65;;;1.25;;
29246;SDS011;16272;48.188;9.964;2023-02-18T07:44:24;3.73;;;0.83;;
29246;SDS011;16272;48.188;9.964;2023-02-18T07:46:51;4.45;;;0.95;;
29246;SDS011;16272;48.188;9.964;2023-02-18T07:49:17;3.97;;;0.93;;
29246;SDS011;16272;48.188;9.964;2023-02-18T07:51:42;3.95;;;0.98;;
29246;SDS011;16272;48.188;9.964;2023-02-18T07:54:11;3.93;;;1.00;;
29246;SDS011;16272;48.188;9.964;2023-02-18T07:56:37;4.00;;;1.10;;
29246;SDS011;16272;48.188;9.964;2023-02-18T07:59:03;3.27;;;0.77;;
29246;SDS011;16272;48.188;9.964;2023-02-18T08:01:28;3.00;;;0.77;;
29246;SDS011;16272;48.188;9.964;2023-02-18T08:03:54;3.60;;;0.60;;
29246;SDS011;16272;48.188;9.964;2023-02-18T08:06:20;2.77;;;0.70;;
29246;SDS011;16272;48.188;9.964;2023-02-18T08:08:49;3.50;;;0.88;;
29246;SDS011;16272;48.188;9.964;2023-02-18T08:11:14;3.40;;;1.10;;
29246;SDS011;16272;48.188;9.964;2023-02-18T08:13:41;2.10;;;0.50;;
29246;SDS011;16272;48.188;9.964;2023-02-18T08:16:07;2.67;;;0.70;;
29246;SDS011;16272;48.188;9.964;2023-02-18T08:18:33;2.97;;;0.73;;
29246;SDS011;16272;48.188;9.964;2023-02-18T08:20:59;3.17;;;0.80;;
29246;SDS011;16272;48.188;9.964;2023-02-18T08:23:24;3.40;;;0.80;;
29246;SDS011;16272;48.188;9.964;2023-02-18T08:25:51;3.85;;;0.88;;
29246;SDS011;16272;48.188;9.964;2023-02-18T08:28:17;3.88;;;0.93;;
29246;SDS011;16272;48.188;9.964;2023-02-18T08:30:44;2.90;;;0.75;;
29246;SDS011;16272;48.188;9.964;2023-02-18T08:33:11;3.97;;;0.87;;
29246;SDS011;16272;48.188;9.964;2023-02-18T08:35:36;2.97;;;0.80;;
29246;SDS011;16272;48.188;9.964;2023-02-18T08:38:02;4.00;;;0.83;;
29246;SDS011;16272;48.188;9.964;2023-02-18T08:40:29;2.77;;;0.70;;
29246;SDS011;16272;48.188;9.964;2023-02-18T08:42:55;2.50;;;0.80;;
29246;SDS011;16272;48.188;9.964;2023-02-18T08:45:20;3.80;;;0.77;;
29246;SDS011;16272;48.188;9.964;2023-02-18T08:47:45;3.43;;;0.80;;
29246;SDS011;16272;48.188;9.964;2023-02-18T08:50:13;3.65;;;0.60;;
29246;SDS011;16272;48.188;9.964;2023-02-18T08:52:40;2.90;;;0.87;;
29246;SDS011;16272;48.188;9.964;2023-02-18T08:55:06;3.08;;;0.73;;
29246;SDS011;16272;48.188;9.964;2023-02-18T08:57:31;3.33;;;0.82;;
29246;SDS011;16272;48.188;9.964;2023-02-18T08:59:57;4.03;;;0.87;;
29246;SDS011;16272;48.188;9.964;2023-02-18T09:02:22;3.80;;;0.87;;
29246;SDS011;16272;48.188;9.964;2023-02-18T09:04:48;3.83;;;1.00;;
29246;SDS011;16272;48.188;9.964;2023-02-18T09:07:14;3.47;;;0.88;;
29246;SDS011;16272;48.188;9.964;2023-02-18T09:09:39;3.83;;;1.20;;
29246;SDS011;16272;48.188;9.964;2023-02-18T09:12:05;3.80;;;1.00;;
29246;SDS011;16272;48.188;9.964;2023-02-18T09:14:33;3.55;;;0.90;;
29246;SDS011;16272;48.188;9.964;2023-02-18T09:16:59;3.67;;;1.13;;
29246;SDS011;16272;48.188;9.964;2023-02-18T09:19:25;3.47;;;0.70;;
29246;SDS011;16272;48.188;9.964;2023-02-18T09:21:50;4.03;;;1.13;;
29246;SDS011;16272;48.188;9.964;2023-02-18T09:24:17;3.75;;;1.10;;
29246;SDS011;16272;48.188;9.964;2023-02-18T09:26:45;3.78;;;1.15;;
29246;SDS011;16272;48.188;9.964;2023-02-18T09:29:12;3.20;;;0.97;;
29246;SDS011;16272;48.188;9.964;2023-02-18T09:31:37;4.22;;;1.10;;
29246;SDS011;16272;48.188;9.964;2023-02-18T09:34:03;3.97;;;1.00;;
29246;SDS011;16272;48.188;9.964;2023-02-18T09:36:30;4.22;;;1.08;;
29246;SDS011;16272;48.188;9.964;2023-02-18T09:38:56;3.92;;;1.20;;
29246;SDS011;16272;48.188;9.964;2023-02-18T09:47:02;4.40;;;1.30;;
29246;SDS011;16272;48.188;9.964;2023-02-18T09:49:31;4.35;;;1.15;;
29246;SDS011;16272;48.188;9.964;2023-02-18T09:52:35;3.63;;;0.80;;
29246;SDS011;16272;48.188;9.964;2023-02-18T09:55:49;4.60;;;1.20;;
29246;SDS011;16272;48.188;9.964;2023-02-18T09:58:15;5.63;;;1.10;;
29246;SDS011;16272;48.188;9.964;2023-02-18T10:00:45;4.10;;;1.10;;
29246;SDS011;16272;48.188;9.964;2023-02-18T10:03:19;4.20;;;1.10;;
29246;SDS011;16272;48.188;9.964;2023-02-18T10:05:54;3.88;;;0.98;;
29246;SDS011;16272;48.188;9.964;2023-02-18T10:08:25;4.17;;;1.17;;
29246;SDS011;16272;48.188;9.964;2023-02-18T10:10:57;4.20;;;0.90;;
29246;SDS011;16272;48.188;9.964;2023-02-18T10:13:24;4.00;;;1.23;;
29246;SDS011;16272;48.188;9.964;2023-02-18T10:15:52;4.05;;;1.20;;
29246;SDS011;16272;48.188;9.964;2023-02-18T10:18:26;3.88;;;0.90;;
29246;SDS011;16272;48.188;9.964;2023-02-18T10:21:05;4.40;;;1.10;;
29246;SDS011;16272;48.188;9.964;2023-02-18T10:23:36;4.32;;;1.25;;
29246;SDS011;16272;48.188;9.964;2023-02-18T10:26:04;5.03;;;0.90;;
29246;SDS011;16272;48.188;9.964;2023-02-18T10:28:34;3.75;;;1.00;;
29246;SDS011;16272;48.188;9.964;2023-02-18T10:31:04;4.15;;;1.35;;
29246;SDS011;16272;48.188;9.964;2023-02-18T10:33:52;3.90;;;0.90;;
29246;SDS011;16272;48.188;9.964;2023-02-18T10:36:22;4.22;;;1.40;;
29246;SDS011;16272;48.188;9.964;2023-02-18T10:44:58;3.80;;;1.00;;
29246;SDS011;16272;48.188;9.964;2023-02-18T10:50:10;5.60;;;1.33;;
29246;SDS011;16272;48.188;9.964;2023-02-18T10:52:43;5.15;;;1.27;;
29246;SDS011;16272;48.188;9.964;2023-02-18T10:55:13;5.20;;;1.10;;
29246;SDS011;16272;48.188;9.964;2023-02-18T10:57:49;4.50;;;1.10;;
29246;SDS011;16272;48.188;9.964;2023-02-18T11:00:18;4.60;;;1.40;;
29246;SDS011;16272;48.188;9.964;2023-02-18T11:02:44;4.30;;;0.90;;
29246;SDS011;16272;48.188;9.964;2023-02-18T11:05:28;4.90;;;1.60;;
29246;SDS011;16272;48.188;9.964;2023-02-18T11:07:55;4.30;;;1.27;;
29246;SDS011;16272;48.188;9.964;2023-02-18T11:10:25;4.57;;;1.63;;
29246;SDS011;16272;48.188;9.964;2023-02-18T11:13:01;4.43;;;1.30;;
29246;SDS011;16272;48.188;9.964;2023-02-18T11:15:29;4.45;;;1.13;;
29246;SDS011;16272;48.188;9.964;2023-02-18T11:17:55;4.37;;;1.00;;
29246;SDS011;16272;48.188;9.964;2023-02-18T11:20:31;4.35;;;1.10;;
29246;SDS011;16272;48.188;9.964;2023-02-18T11:25:38;3.85;;;1.00;;
29246;SDS011;16272;48.188;9.964;2023-02-18T11:28:27;4.72;;;1.35;;
29246;SDS011;16272;48.188;9.964;2023-02-18T11:30:54;5.17;;;1.20;;
29246;SDS011;16272;48.188;9.964;2023-02-18T11:36:03;3.33;;;0.90;;
29246;SDS011;16272;48.188;9.964;2023-02-18T11:38:46;4.45;;;1.33;;
29246;SDS011;16272;48.188;9.964;2023-02-18T11:41:16;3.58;;;1.00;;
29246;SDS011;16272;48.188;9.964;2023-02-18T11:43:48;4.47;;;1.20;;
29246;SDS011;16272;48.188;9.964;2023-02-18T11:46:19;3.08;;;0.80;;
29246;SDS011;16272;48.188;9.964;2023-02-18T11:48:47;5.18;;;1.30;;
29246;SDS011;16272;48.188;9.964;2023-02-18T11:51:24;3.67;;;1.00;;
29246;SDS011;16272;48.188;9.964;2023-02-18T11:53:54;4.10;;;1.23;;
29246;SDS011;16272;48.188;9.964;2023-02-18T11:56:23;3.40;;;0.83;;
29246;SDS011;16272;48.188;9.964;2023-02-18T11:58:49;5.10;;;1.30;;
29246;SDS011;16272;48.188;9.964;2023-02-18T12:06:27;4.72;;;1.33;;
29246;SDS011;16272;48.188;9.964;2023-02-18T12:11:46;3.92;;;1.00;;
29246;SDS011;16272;48.188;9.964;2023-02-18T12:14:18;3.53;;;1.10;;
29246;SDS011;16272;48.188;9.964;2023-02-18T12:19:50;3.25;;;0.90;;
29246;SDS011;16272;48.188;9.964;2023-02-18T12:22:45;3.83;;;0.93;;
29246;SDS011;16272;48.188;9.964;2023-02-18T12:25:39;3.85;;;0.90;;
29246;SDS011;16272;48.188;9.964;2023-02-18T12:31:35;3.40;;;0.82;;
29246;SDS011;16272;48.188;9.964;2023-02-18T12:34:41;4.38;;;1.05;;
29246;SDS011;16272;48.188;9.964;2023-02-18T12:37:36;4.17;;;0.87;;
29246;SDS011;16272;48.188;9.964;2023-02-18T12:40:53;3.47;;;0.70;;
29246;SDS011;16272;48.188;9.964;2023-02-18T12:43:15;3.58;;;1.10;;
29246;SDS011;16272;48.188;9.964;2023-02-18T12:48:51;4.03;;;0.93;;
29246;SDS011;16272;48.188;9.964;2023-02-18T12:51:35;3.67;;;1.03;;
29246;SDS011;16272;48.188;9.964;2023-02-18T12:57:00;3.78;;;1.00;;
29246;SDS011;16272;48.188;9.964;2023-02-18T13:00:02;3.90;;;0.90;;
29246;SDS011;16272;48.188;9.964;2023-02-18T13:08:00;3.90;;;0.90;;
29246;SDS011;16272;48.188;9.964;2023-02-18T13:10:42;3.35;;;0.90;;
29246;SDS011;16272;48.188;9.964;2023-02-18T13:15:55;3.47;;;0.80;;
29246;SDS011;16272;48.188;9.964;2023-02-18T13:18:36;4.07;;;1.10;;
29246;SDS011;16272;48.188;9.964;2023-02-18T13:21:11;3.80;;;1.10;;
29246;SDS011;16272;48.188;9.964;2023-02-18T13:23:45;3.53;;;0.80;;
29246;SDS011;16272;48.188;9.964;2023-02-18T13:26:16;3.40;;;0.70;;
29246;SDS011;16272;48.188;9.964;2023-02-18T13:31:39;5.38;;;1.00;;
29246;SDS011;16272;48.188;9.964;2023-02-18T13:34:14;4.20;;;0.80;;
29246;SDS011;16272;48.188;9.964;2023-02-18T13:36:51;4.65;;;1.02;;
29246;SDS011;16272;48.188;9.964;2023-02-18T13:39:24;4.03;;;0.90;;
29246;SDS011;16272;48.188;9.964;2023-02-18T13:41:51;4.13;;;1.02;;
29246;SDS011;16272;48.188;9.964;2023-02-18T13:45:00;3.72;;;0.95;;
29246;SDS011;16272;48.188;9.964;2023-02-18T13:50:13;3.25;;;0.80;;
29246;SDS011;16272;48.188;9.964;2023-02-18T13:52:49;4.03;;;0.93;;
29246;SDS011;16272;48.188;9.964;2023-02-18T13:55:23;4.07;;;0.90;;
29246;SDS011;16272;48.188;9.964;2023-02-18T13:58:04;3.78;;;0.90;;
29246;SDS011;16272;48.188;9.964;2023-02-18T14:00:39;3.50;;;0.90;;
29246;SDS011;16272;48.188;9.964;2023-02-18T14:03:30;3.88;;;0.77;;
29246;SDS011;16272;48.188;9.964;2023-02-18T14:05:57;3.92;;;0.90;;
29246;SDS011;16272;48.188;9.964;2023-02-18T14:08:31;4.47;;;0.90;;
29246;SDS011;16272;48.188;9.964;2023-02-18T14:13:42;4.60;;;1.10;;
29246;SDS011;16272;48.188;9.964;2023-02-18T14:16:13;6.57;;;0.70;;
29246;SDS011;16272;48.188;9.964;2023-02-18T14:26:05;3.97;;;0.90;;
29246;SDS011;16272;48.188;9.964;2023-02-18T14:31:04;4.05;;;0.90;;
29246;SDS011;16272;48.188;9.964;2023-02-18T14:45:10;4.38;;;1.17;;
29246;SDS011;16272;48.188;9.964;2023-02-18T14:50:45;4.23;;;0.93;;
29246;SDS011;16272;48.188;9.964;2023-02-18T14:53:14;4.25;;;1.30;;
29246;SDS011;16272;48.188;9.964;2023-02-18T14:55:44;4.70;;;1.20;;
29246;SDS011;16272;48.188;9.964;2023-02-18T14:58:25;4.43;;;0.95;;
29246;SDS011;16272;48.188;9.964;2023-02-18T15:00:55;3.85;;;0.80;;
29246;SDS011;16272;48.188;9.964;2023-02-18T15:03:20;3.97;;;1.00;;
29246;SDS011;16272;48.188;9.964;2023-02-18T15:05:47;4.28;;;0.98;;
29246;SDS011;16272;48.188;9.964;2023-02-18T15:08:16;4.13;;;0.82;;
29246;SDS011;16272;48.188;9.964;2023-02-18T15:11:05;4.90;;;1.20;;
29246;SDS011;16272;48.188;9.964;2023-02-18T15:13:33;3.75;;;0.90;;
29246;SDS011;16272;48.188;9.964;2023-02-18T15:16:02;3.40;;;0.90;;
29246;SDS011;16272;48.188;9.964;2023-02-18T15:18:57;4.25;;;0.90;;
29246;SDS011;16272;48.188;9.964;2023-02-18T15:21:38;3.60;;;0.90;;
29246;SDS011;16272;48.188;9.964;2023-02-18T15:24:08;4.10;;;0.80;;
29246;SDS011;16272;48.188;9.964;2023-02-18T15:26:50;6.05;;;1.80;;
29246;SDS011;16272;48.188;9.964;2023-02-18T15:29:18;8.43;;;2.42;;
29246;SDS011;16272;48.188;9.964;2023-02-18T15:31:46;6.93;;;2.25;;
29246;SDS011;16272;48.188;9.964;2023-02-18T15:34:54;5.70;;;1.80;;
29246;SDS011;16272;48.188;9.964;2023-02-18T15:37:02;16.83;;;7.53;;
29246;SDS011;16272;48.188;9.964;2023-02-18T15:39:30;10.73;;;3.78;;
29246;SDS011;16272;48.188;9.964;2023-02-18T15:42:38;6.13;;;2.20;;
29246;SDS011;16272;48.188;9.964;2023-02-18T15:45:15;4.47;;;1.17;;
29246;SDS011;16272;48.188;9.964;2023-02-18T15:47:42;4.82;;;1.30;;
29246;SDS011;16272;48.188;9.964;2023-02-18T15:50:17;3.93;;;1.00;;
29246;SDS011;16272;48.188;9.964;2023-02-18T15:52:47;4.47;;;1.20;;
29246;SDS011;16272;48.188;9.964;2023-02-18T15:55:16;5.70;;;1.30;;
29246;SDS011;16272;48.188;9.964;2023-02-18T15:58:04;73.15;;;6.72;;
29246;SDS011;16272;48.188;9.964;2023-02-18T16:00:45;10.43;;;1.10;;
29246;SDS011;16272;48.188;9.964;2023-02-18T16:03:28;7.00;;;1.40;;
29246;SDS011;16272;48.188;9.964;2023-02-18T16:06:10;5.20;;;1.00;;
29246;SDS011;16272;48.188;9.964;2023-02-18T16:08:41;4.78;;;1.20;;
29246;SDS011;16272;48.188;9.964;2023-02-18T16:11:22;4.50;;;1.20;;
29246;SDS011;16272;48.188;9.964;2023-02-18T16:13:49;5.13;;;1.30;;
29246;SDS011;16272;48.188;9.964;2023-02-18T16:16:34;4.77;;;1.20;;
29246;SDS011;16272;48.188;9.964;2023-02-18T16:19:03;3.83;;;0.90;;
29246;SDS011;16272;48.188;9.964;2023-02-18T16:24:03;4.55;;;0.98;;
29246;SDS011;16272;48.188;9.964;2023-02-18T16:26:49;3.80;;;1.05;;
29246;SDS011;16272;48.188;9.964;2023-02-18T16:29:24;4.50;;;1.20;;
29246;SDS011;16272;48.188;9.964;2023-02-18T16:31:58;4.50;;;1.17;;
29246;SDS011;16272;48.188;9.964;2023-02-18T16:34:23;4.67;;;1.20;;
29246;SDS011;16272;48.188;9.964;2023-02-18T16:36:49;5.30;;;1.17;;
29246;SDS011;16272;48.188;9.964;2023-02-18T16:39:33;3.75;;;1.00;;
29246;SDS011;16272;48.188;9.964;2023-02-18T16:41:59;10.90;;;1.80;;
29246;SDS011;16272;48.188;9.964;2023-02-18T16:44:25;10.82;;;1.33;;
29246;SDS011;16272;48.188;9.964;2023-02-18T16:46:52;4.50;;;0.83;;
29246;SDS011;16272;48.188;9.964;2023-02-18T16:49:18;5.75;;;1.30;;
29246;SDS011;16272;48.188;9.964;2023-02-18T16:51:44;6.60;;;1.42;;
29246;SDS011;16272;48.188;9.964;2023-02-18T16:54:10;5.05;;;1.20;;
29246;SDS011;16272;48.188;9.964;2023-02-18T16:56:36;4.43;;;1.10;;
29246;SDS011;16272;48.188;9.964;2023-02-18T16:59:02;4.63;;;1.10;;
29246;SDS011;16272;48.188;9.964;2023-02-18T17:04:05;13.75;;;2.00;;
29246;SDS011;16272;48.188;9.964;2023-02-18T17:06:34;8.40;;;1.77;;
29246;SDS011;16272;48.188;9.964;2023-02-18T17:08:59;13.03;;;1.70;;
29246;SDS011;16272;48.188;9.964;2023-02-18T17:11:29;11.15;;;1.23;;
29246;SDS011;16272;48.188;9.964;2023-02-18T17:13:57;4.45;;;1.00;;
29246;SDS011;16272;48.188;9.964;2023-02-18T17:16:25;5.57;;;1.38;;